Terminal Aerodrome Forecast
Issued by NWS Shreveport, LA

Home | Current Version | Previous Version | Text Only | Print | Product List | Glossary On
Versions: 1 2 3 4 5 6 7 8 9 10 11 12
000
FTUS44 KSHV 230500 RRA
TAFELD
TAF
KELD 230542Z 2306/2406 VRB03KT P6SM SKC
      TEMPO 2311/2313 4SM BR FEW006
     FM231500 24005KT P6SM SKC
     FM240000 00000KT P6SM SKC=

USA.gov is the U.S. government's official web portal to all federal, state and local government web resources and services.